createdAt,value
2022-09-14T00:01:26.826Z,76.28
2022-09-14T00:03:59.728Z,77.30
2022-09-14T00:06:27.941Z,76.97
2022-09-14T00:08:58.196Z,76.61
2022-09-14T00:11:27.559Z,74.79
2022-09-14T00:13:55.314Z,75.00
2022-09-14T00:16:29.423Z,74.85
2022-09-14T00:19:06.370Z,75.63
2022-09-14T00:21:36.009Z,75.51
2022-09-14T00:24:04.978Z,76.17
2022-09-14T00:26:33.036Z,75.78
2022-09-14T00:29:05.039Z,75.46
2022-09-14T00:31:38.191Z,74.23
2022-09-14T00:34:07.822Z,74.45
2022-09-14T00:36:42.524Z,74.44
2022-09-14T00:39:10.647Z,74.00
2022-09-14T00:41:40.459Z,73.60
2022-09-14T00:44:27.740Z,72.01
2022-09-14T00:46:57.275Z,71.82
2022-09-14T00:49:25.714Z,72.51
2022-09-14T00:51:59.202Z,72.63
2022-09-14T00:54:26.998Z,72.57
2022-09-14T00:56:55.048Z,70.68
2022-09-14T00:59:27.572Z,70.18
2022-09-14T01:01:55.440Z,69.87
2022-09-14T01:04:24.203Z,71.96
2022-09-14T01:07:10.584Z,72.78
2022-09-14T01:09:49.923Z,74.98
2022-09-14T01:12:30.185Z,74.37
2022-09-14T01:15:04.352Z,74.94
2022-09-14T01:17:50.362Z,72.95
2022-09-14T01:20:27.087Z,73.05
2022-09-14T01:23:05.197Z,74.87
2022-09-14T01:26:00.380Z,75.93
2022-09-14T01:28:57.352Z,77.18
2022-09-14T01:31:38.671Z,78.33
2022-09-14T01:34:16.614Z,78.55
2022-09-14T01:36:48.703Z,78.09
2022-09-14T01:39:16.875Z,78.40
2022-09-14T01:41:45.933Z,79.31
2022-09-14T01:44:21.466Z,78.62
2022-09-14T01:46:54.062Z,79.19
2022-09-14T01:49:32.210Z,77.70
2022-09-14T01:52:04.555Z,79.96
2022-09-14T01:54:39.902Z,80.24
2022-09-14T01:57:31.959Z,79.23
2022-09-14T02:00:04.359Z,79.35
2022-09-14T02:02:39.887Z,77.53
2022-09-14T02:05:11.304Z,76.31
2022-09-14T02:07:38.979Z,75.91
2022-09-14T02:10:10.064Z,75.46
2022-09-14T02:12:38.045Z,75.30
2022-09-14T02:15:06.905Z,74.86
2022-09-14T02:17:34.671Z,73.90
2022-09-14T02:20:06.560Z,73.45
2022-09-14T02:22:34.226Z,72.63
2022-09-14T02:25:02.064Z,71.88
2022-09-14T02:27:29.622Z,70.63
2022-09-14T02:29:57.094Z,69.90
2022-09-14T02:32:43.795Z,71.56
2022-09-14T02:35:23.971Z,70.82
2022-09-14T02:38:29.866Z,70.26
2022-09-14T02:41:03.291Z,69.57
2022-09-14T02:43:56.100Z,69.40
2022-09-14T02:46:35.870Z,70.49
2022-09-14T02:49:08.749Z,73.74
2022-09-14T02:51:47.994Z,74.82
2022-09-14T02:54:41.819Z,72.03
2022-09-14T02:57:09.212Z,70.53
2022-09-14T02:59:37.264Z,70.68
2022-09-14T03:02:04.815Z,71.97
2022-09-14T03:04:32.594Z,71.75
2022-09-14T03:07:00.343Z,71.19
2022-09-14T03:09:28.464Z,71.30
2022-09-14T03:11:55.907Z,70.38
2022-09-14T03:14:23.701Z,72.56
2022-09-14T03:16:51.107Z,72.60
2022-09-14T03:19:18.443Z,72.96
2022-09-14T03:21:46.086Z,73.02
2022-09-14T03:24:13.512Z,71.97
2022-09-14T03:26:41.022Z,71.32
2022-09-14T03:29:08.795Z,70.29
2022-09-14T03:31:36.822Z,69.74
2022-09-14T03:34:04.231Z,70.43
2022-09-14T03:36:31.938Z,71.27
2022-09-14T03:39:01.727Z,71.22
2022-09-14T03:41:29.320Z,70.77
2022-09-14T03:43:57.194Z,71.59
2022-09-14T03:46:25.426Z,74.07
2022-09-14T03:48:54.526Z,74.35
2022-09-14T03:51:22.294Z,71.92
2022-09-14T03:53:49.690Z,69.97
2022-09-14T03:56:19.388Z,69.14
2022-09-14T03:58:47.846Z,67.98
2022-09-14T04:01:17.970Z,67.23
2022-09-14T04:03:45.983Z,66.96
2022-09-14T04:06:14.332Z,66.97
2022-09-14T04:08:42.244Z,66.98
2022-09-14T04:11:20.932Z,67.27
2022-09-14T04:13:48.847Z,67.57
2022-09-14T04:16:18.327Z,70.29
2022-09-14T04:18:45.713Z,72.54
2022-09-14T04:21:18.244Z,70.25
2022-09-14T04:24:12.825Z,70.76
2022-09-14T04:26:34.459Z,70.46
2022-09-14T04:29:02.181Z,71.13
2022-09-14T04:31:29.719Z,69.14
2022-09-14T04:33:57.438Z,67.92
2022-09-14T04:36:29.428Z,67.61
2022-09-14T04:38:59.092Z,67.76
2022-09-14T04:41:27.666Z,67.13
2022-09-14T04:43:56.112Z,67.34
2022-09-14T04:46:32.396Z,67.26
2022-09-14T04:49:00.186Z,67.34
2022-09-14T04:51:30.718Z,67.57
2022-09-14T04:53:59.506Z,68.74
2022-09-14T04:56:28.542Z,69.25
2022-09-14T04:58:58.698Z,71.35
2022-09-14T05:01:28.535Z,70.10
2022-09-14T05:03:56.599Z,68.37
2022-09-14T05:06:26.654Z,67.92
2022-09-14T05:08:54.611Z,67.26
2022-09-14T05:11:24.371Z,66.92
2022-09-14T05:13:52.357Z,66.38
2022-09-14T05:16:28.571Z,66.04
2022-09-14T05:19:01.291Z,65.70
2022-09-14T05:21:30.298Z,64.80
2022-09-14T05:24:04.179Z,65.24
2022-09-14T05:26:32.002Z,64.39
2022-09-14T05:29:01.329Z,64.47
2022-09-14T05:31:30.033Z,64.10
2022-09-14T05:33:58.028Z,63.67
2022-09-14T05:36:26.092Z,64.22
2022-09-14T05:38:53.660Z,63.83
2022-09-14T05:41:21.091Z,63.60
2022-09-14T05:43:48.732Z,63.97
2022-09-14T05:46:20.279Z,63.74
2022-09-14T05:48:51.312Z,63.41
2022-09-14T05:51:22.042Z,64.00
2022-09-14T05:53:53.762Z,64.80
2022-09-14T05:56:23.275Z,63.38
2022-09-14T05:58:50.974Z,62.87
2022-09-14T06:01:24.366Z,62.17
2022-09-14T06:03:56.695Z,62.71
2022-09-14T06:06:24.412Z,63.57
2022-09-14T06:08:54.119Z,62.64
2022-09-14T06:11:24.081Z,62.49
2022-09-14T06:13:51.935Z,61.79
2022-09-14T06:16:21.156Z,60.76
2022-09-14T06:18:49.286Z,60.96
2022-09-14T06:21:20.406Z,60.14
2022-09-14T06:23:49.924Z,60.86
2022-09-14T06:26:20.817Z,59.88
2022-09-14T06:28:49.199Z,58.56
2022-09-14T06:31:17.915Z,58.06
2022-09-14T06:33:46.747Z,57.28
2022-09-14T06:36:16.422Z,56.85
2022-09-14T06:38:44.474Z,57.21
2022-09-14T06:41:14.187Z,57.07
2022-09-14T06:43:42.375Z,58.07
2022-09-14T06:46:23.674Z,56.10
2022-09-14T06:48:55.374Z,56.14
2022-09-14T06:51:28.759Z,55.31
2022-09-14T06:54:00.263Z,55.68
2022-09-14T06:56:29.261Z,55.44
2022-09-14T06:58:58.006Z,56.77
2022-09-14T07:01:26.793Z,57.64
2022-09-14T07:03:54.651Z,58.08
2022-09-14T07:06:25.332Z,61.73
2022-09-14T07:08:53.643Z,62.38
2022-09-14T07:11:27.978Z,61.83
2022-09-14T07:13:58.945Z,61.75
2022-09-14T07:16:26.867Z,62.68
2022-09-14T07:18:59.541Z,64.14
2022-09-14T07:21:28.624Z,63.75
2022-09-14T07:23:56.097Z,63.80
2022-09-14T07:26:25.903Z,67.21
2022-09-14T07:28:59.554Z,66.48
2022-09-14T07:31:48.415Z,68.07
2022-09-14T07:34:16.235Z,70.48
2022-09-14T07:36:43.950Z,69.66
2022-09-14T07:39:13.661Z,67.55
2022-09-14T07:41:41.861Z,68.54
2022-09-14T07:44:10.308Z,68.94
2022-09-14T07:46:40.254Z,66.89
2022-09-14T07:49:08.902Z,65.53
2022-09-14T07:51:37.258Z,65.39
2022-09-14T07:54:06.488Z,65.18
2022-09-14T07:56:35.192Z,65.23
2022-09-14T07:59:33.532Z,64.44
2022-09-14T08:01:56.114Z,62.97
2022-09-14T08:04:23.938Z,63.54
2022-09-14T08:06:51.272Z,64.02
2022-09-14T08:09:18.568Z,64.72
2022-09-14T08:11:45.820Z,63.81
2022-09-14T08:14:14.186Z,64.03
2022-09-14T08:16:41.789Z,63.64
2022-09-14T08:19:15.320Z,63.47
2022-09-14T08:21:46.917Z,63.62
2022-09-14T08:24:17.816Z,62.54
2022-09-14T08:26:46.239Z,61.89
2022-09-14T08:29:15.637Z,62.72
2022-09-14T08:31:44.439Z,62.20
2022-09-14T08:34:11.813Z,61.44
2022-09-14T08:36:40.588Z,61.53
2022-09-14T08:39:10.442Z,61.81
2022-09-14T08:41:43.828Z,61.25
2022-09-14T08:44:18.818Z,60.16
2022-09-14T08:46:54.051Z,59.40
2022-09-14T08:49:30.179Z,60.06
2022-09-14T08:51:57.577Z,58.83
2022-09-14T08:54:25.233Z,59.46
2022-09-14T08:57:02.338Z,59.10
2022-09-14T09:00:06.148Z,57.67
2022-09-14T09:02:48.106Z,57.35
2022-09-14T09:05:25.786Z,58.01
2022-09-14T09:08:08.202Z,58.37
2022-09-14T09:10:37.850Z,57.76
2022-09-14T09:13:06.086Z,57.01
2022-09-14T09:15:45.234Z,56.69
2022-09-14T09:18:20.240Z,57.03
2022-09-14T09:20:51.761Z,56.10
2022-09-14T09:23:22.231Z,54.62
2022-09-14T09:26:11.373Z,54.89
2022-09-14T09:28:49.939Z,55.14
2022-09-14T09:31:19.968Z,54.26
2022-09-14T09:33:50.778Z,54.53
2022-09-14T09:36:18.539Z,55.45
2022-09-14T09:38:46.295Z,53.10
2022-09-14T09:41:25.571Z,53.34
2022-09-14T09:43:59.956Z,53.26
2022-09-14T09:46:33.411Z,52.95
2022-09-14T09:49:14.828Z,52.80
2022-09-14T09:51:42.575Z,53.13
2022-09-14T09:54:12.632Z,52.58
2022-09-14T09:57:00.965Z,52.46
2022-09-14T09:59:31.664Z,53.86
2022-09-14T10:02:27.356Z,55.22
2022-09-14T10:05:00.549Z,53.29
2022-09-14T10:07:29.998Z,54.02
2022-09-14T10:10:03.332Z,52.44
2022-09-14T10:12:31.082Z,51.77
2022-09-14T10:15:28.371Z,51.89
2022-09-14T10:18:13.494Z,50.98
2022-09-14T10:20:53.162Z,51.90
2022-09-14T10:23:23.046Z,51.42
2022-09-14T10:26:13.642Z,52.04
2022-09-14T10:28:44.997Z,52.32
2022-09-14T10:31:16.108Z,52.00
2022-09-14T10:33:44.872Z,51.78
2022-09-14T10:36:32.727Z,52.50
2022-09-14T10:39:27.312Z,51.90
2022-09-14T10:41:56.657Z,51.94
2022-09-14T10:44:40.746Z,52.06
2022-09-14T10:47:26.749Z,52.30
2022-09-14T10:50:07.174Z,51.72
2022-09-14T10:52:34.449Z,52.17
2022-09-14T10:55:14.845Z,51.79
2022-09-14T10:57:50.849Z,51.43
2022-09-14T11:00:22.332Z,50.73
2022-09-14T11:03:19.422Z,51.65
2022-09-14T11:06:00.177Z,52.37
2022-09-14T11:08:42.170Z,52.72
2022-09-14T11:11:28.201Z,53.31
2022-09-14T11:13:58.649Z,51.93
2022-09-14T11:16:44.313Z,52.14
2022-09-14T11:19:30.718Z,52.51
2022-09-14T11:22:04.626Z,52.24
2022-09-14T11:24:51.214Z,53.02
2022-09-14T11:27:27.324Z,51.77
2022-09-14T11:30:01.551Z,52.04
2022-09-14T11:32:37.978Z,53.50
2022-09-14T11:35:20.307Z,52.69
2022-09-14T11:38:07.610Z,52.52
2022-09-14T11:41:17.001Z,51.94
2022-09-14T11:43:50.947Z,52.80
2022-09-14T11:46:31.673Z,52.77
2022-09-14T11:49:14.429Z,53.22
2022-09-14T11:51:55.295Z,53.36
2022-09-14T11:54:24.015Z,52.37
2022-09-14T11:56:56.853Z,53.58
2022-09-14T11:59:39.841Z,52.44
2022-09-14T12:02:22.585Z,51.76
2022-09-14T12:05:08.296Z,52.35
2022-09-14T12:07:47.983Z,52.62
2022-09-14T12:10:15.720Z,52.27
2022-09-14T12:12:58.302Z,51.33
2022-09-14T12:15:29.130Z,51.03
2022-09-14T12:18:05.787Z,51.07
2022-09-14T12:20:44.426Z,50.32
2022-09-14T12:23:30.139Z,50.95
2022-09-14T12:26:23.504Z,51.51
2022-09-14T12:28:53.818Z,49.97
2022-09-14T12:31:47.939Z,48.97
2022-09-14T12:34:22.116Z,51.19
2022-09-14T12:36:50.179Z,50.38
2022-09-14T12:39:25.514Z,48.89
2022-09-14T12:41:53.029Z,47.41
2022-09-14T12:44:41.468Z,47.96
2022-09-14T12:47:24.316Z,48.81
2022-09-14T12:49:57.789Z,47.86
2022-09-14T12:52:46.110Z,47.71
2022-09-14T12:56:05.108Z,47.99
2022-09-14T12:58:56.656Z,47.96
2022-09-14T13:01:53.313Z,46.57
2022-09-14T13:04:29.393Z,47.28
2022-09-14T13:06:59.465Z,47.29
2022-09-14T13:09:29.004Z,47.38
2022-09-14T13:11:58.798Z,47.37
2022-09-14T13:14:32.873Z,47.54
2022-09-14T13:17:01.250Z,48.02
2022-09-14T13:19:33.953Z,48.13
2022-09-14T13:22:02.688Z,46.97
2022-09-14T13:24:31.153Z,49.08
2022-09-14T13:27:01.220Z,47.07
2022-09-14T13:29:29.370Z,45.99
2022-09-14T13:32:02.541Z,45.83
2022-09-14T13:34:34.864Z,47.29
2022-09-14T13:37:02.746Z,46.47
2022-09-14T13:39:36.121Z,47.03
2022-09-14T13:42:04.472Z,47.27
2022-09-14T13:44:35.138Z,50.63
2022-09-14T13:47:04.982Z,49.90
2022-09-14T13:49:34.439Z,47.17
2022-09-14T13:52:33.927Z,47.56
2022-09-14T13:55:34.081Z,51.87
2022-09-14T13:58:22.550Z,51.55
2022-09-14T14:00:56.587Z,50.44
2022-09-14T14:03:39.006Z,51.89
2022-09-14T14:06:25.273Z,50.89
2022-09-14T14:09:09.910Z,48.82
2022-09-14T14:11:41.707Z,50.61
2022-09-14T14:14:13.780Z,51.58
2022-09-14T14:17:11.308Z,52.37
2022-09-14T14:19:43.764Z,51.05
2022-09-14T14:22:14.190Z,49.25
2022-09-14T14:25:11.900Z,48.78
2022-09-14T14:27:37.706Z,50.18
2022-09-14T14:30:15.259Z,51.26
2022-09-14T14:32:42.721Z,50.37
2022-09-14T14:35:20.006Z,49.58
2022-09-14T14:37:48.762Z,51.56
2022-09-14T14:40:16.920Z,51.93
2022-09-14T14:42:44.644Z,52.08
2022-09-14T14:45:18.925Z,51.51
2022-09-14T14:47:47.524Z,52.00
2022-09-14T14:50:16.723Z,53.41
2022-09-14T14:52:44.253Z,52.04
2022-09-14T14:55:11.930Z,52.44
2022-09-14T14:57:39.284Z,52.38
2022-09-14T15:00:13.201Z,53.49
2022-09-14T15:02:40.885Z,52.96
2022-09-14T15:05:08.392Z,52.97
2022-09-14T15:07:37.793Z,52.14
2022-09-14T15:10:06.720Z,52.06
2022-09-14T15:12:34.452Z,51.52
2022-09-14T15:15:01.940Z,51.16
2022-09-14T15:17:29.572Z,52.42
2022-09-14T15:19:57.146Z,53.05
2022-09-14T15:22:25.252Z,52.64
2022-09-14T15:24:52.942Z,52.53
2022-09-14T15:27:20.319Z,52.53
2022-09-14T15:29:47.697Z,52.09
2022-09-14T15:32:15.794Z,53.09
2022-09-14T15:34:43.993Z,54.21
2022-09-14T15:37:11.343Z,54.49
2022-09-14T15:39:39.415Z,54.64
2022-09-14T15:42:06.962Z,53.29
2022-09-14T15:44:35.240Z,52.54
2022-09-14T15:47:03.050Z,52.77
2022-09-14T15:49:30.441Z,52.26
2022-09-14T15:51:58.039Z,52.30
2022-09-14T15:54:31.380Z,51.81
2022-09-14T15:57:02.079Z,51.82
2022-09-14T15:59:29.873Z,52.58
2022-09-14T16:01:57.368Z,54.00
2022-09-14T16:04:25.183Z,57.66
2022-09-14T16:06:52.543Z,55.75
2022-09-14T16:09:22.411Z,55.65
2022-09-14T16:11:50.062Z,57.85
2022-09-14T16:14:17.468Z,57.19
2022-09-14T16:16:45.164Z,57.03
2022-09-14T16:19:14.701Z,59.15
2022-09-14T16:21:42.561Z,57.54
2022-09-14T16:24:16.123Z,55.44
2022-09-14T16:26:44.170Z,54.06
2022-09-14T16:29:13.491Z,54.63
2022-09-14T16:31:42.329Z,53.85
2022-09-14T16:34:20.030Z,53.61
2022-09-14T16:36:47.574Z,53.92
2022-09-14T16:39:22.444Z,53.83
2022-09-14T16:41:50.371Z,55.53
2022-09-14T16:44:20.212Z,55.23
2022-09-14T16:46:48.973Z,55.04
2022-09-14T16:49:17.580Z,55.47
2022-09-14T16:51:45.903Z,55.27
2022-09-14T16:54:17.427Z,54.77
2022-09-14T16:56:45.616Z,55.63
2022-09-14T16:59:13.380Z,55.67
2022-09-14T17:01:43.385Z,55.89
2022-09-14T17:04:16.326Z,56.42
2022-09-14T17:06:46.159Z,56.65
2022-09-14T17:09:23.332Z,57.13
2022-09-14T17:11:51.511Z,62.05
2022-09-14T17:14:21.897Z,61.22
2022-09-14T17:16:49.812Z,64.72
2022-09-14T17:19:17.475Z,68.35
2022-09-14T17:21:46.460Z,68.19
2022-09-14T17:24:14.543Z,71.34
2022-09-14T17:26:42.634Z,72.53
2022-09-14T17:29:10.910Z,72.20
2022-09-14T17:31:40.653Z,73.60
2022-09-14T17:34:09.789Z,74.86
2022-09-14T17:36:38.258Z,74.80
2022-09-14T17:39:11.371Z,74.40
2022-09-14T17:41:41.090Z,75.36
2022-09-14T17:44:11.288Z,74.03
2022-09-14T17:46:48.266Z,69.43
2022-09-14T17:49:18.778Z,67.51
2022-09-14T17:51:46.343Z,66.54
2022-09-14T17:54:14.023Z,67.58
2022-09-14T17:56:41.949Z,66.95
2022-09-14T17:59:15.019Z,67.49
2022-09-14T18:01:42.825Z,71.05
2022-09-14T18:04:12.126Z,73.08
2022-09-14T18:06:42.506Z,74.83
2022-09-14T18:09:14.170Z,74.68
2022-09-14T18:11:42.780Z,74.40
2022-09-14T18:14:13.016Z,73.23
2022-09-14T18:16:41.471Z,74.56
2022-09-14T18:19:09.591Z,77.32
2022-09-14T18:21:37.882Z,76.04
2022-09-14T18:24:05.902Z,74.36
2022-09-14T18:26:33.638Z,73.77
2022-09-14T18:29:01.949Z,72.44
2022-09-14T18:31:29.843Z,71.55
2022-09-14T18:34:01.421Z,70.46
2022-09-14T18:36:30.188Z,70.45
2022-09-14T18:38:59.134Z,70.10
2022-09-14T18:41:31.648Z,71.27
2022-09-14T18:44:00.371Z,75.44
2022-09-14T18:46:28.950Z,75.33
2022-09-14T18:49:01.332Z,76.17
2022-09-14T18:51:31.480Z,80.01
2022-09-14T18:54:03.474Z,81.40
2022-09-14T18:56:33.531Z,81.19
2022-09-14T18:59:02.424Z,78.70
2022-09-14T19:01:30.507Z,74.81
2022-09-14T19:03:59.209Z,72.78
2022-09-14T19:06:26.992Z,71.91
2022-09-14T19:08:54.788Z,69.63
2022-09-14T19:11:27.497Z,69.11
2022-09-14T19:14:01.764Z,69.51
2022-09-14T19:16:30.900Z,73.63
2022-09-14T19:18:58.989Z,76.19
2022-09-14T19:21:29.013Z,77.73
2022-09-14T19:24:03.086Z,77.63
2022-09-14T19:26:34.299Z,77.85
2022-09-14T19:29:03.782Z,78.71
2022-09-14T19:31:33.782Z,79.40
2022-09-14T19:34:02.590Z,78.69
2022-09-14T19:36:31.690Z,77.24
2022-09-14T19:39:02.327Z,76.99
2022-09-14T19:41:31.480Z,75.52
2022-09-14T19:44:00.118Z,74.47
2022-09-14T19:46:28.637Z,71.96
2022-09-14T19:48:57.252Z,71.81
2022-09-14T19:51:29.242Z,73.73
2022-09-14T19:53:59.742Z,72.05
2022-09-14T19:56:29.750Z,72.11
2022-09-14T19:59:00.106Z,73.90
2022-09-14T20:01:29.458Z,75.20
2022-09-14T20:03:57.668Z,72.83
2022-09-14T20:06:31.966Z,71.26
2022-09-14T20:09:05.506Z,69.13
2022-09-14T20:11:34.844Z,69.17
2022-09-14T20:14:04.085Z,71.79
2022-09-14T20:16:34.332Z,74.07
2022-09-14T20:19:13.856Z,76.74
2022-09-14T20:21:42.946Z,77.45
2022-09-14T20:24:17.409Z,78.69
2022-09-14T20:26:49.906Z,79.58
2022-09-14T20:29:18.752Z,77.88
2022-09-14T20:31:47.018Z,78.43
2022-09-14T20:34:16.386Z,81.89
2022-09-14T20:36:44.183Z,80.58
2022-09-14T20:39:11.847Z,78.83
2022-09-14T20:41:39.307Z,76.82
2022-09-14T20:44:07.105Z,75.44
2022-09-14T20:46:39.320Z,74.40
2022-09-14T20:49:11.294Z,74.53
2022-09-14T20:51:39.742Z,71.18
2022-09-14T20:54:08.642Z,72.49
2022-09-14T20:56:36.429Z,70.43
2022-09-14T20:59:05.908Z,70.21
2022-09-14T21:01:41.217Z,71.05
2022-09-14T21:04:13.235Z,73.40
2022-09-14T21:06:43.357Z,71.74
2022-09-14T21:09:12.117Z,72.87
2022-09-14T21:11:39.637Z,72.98
2022-09-14T21:14:07.329Z,73.00
2022-09-14T21:16:37.774Z,72.04
2022-09-14T21:19:27.256Z,75.96
2022-09-14T21:21:55.262Z,72.72
2022-09-14T21:24:23.273Z,72.75
2022-09-14T21:26:50.831Z,75.81
2022-09-14T21:29:22.851Z,78.10
2022-09-14T21:31:50.238Z,79.15
2022-09-14T21:34:18.180Z,76.46
2022-09-14T21:36:47.528Z,81.30
2022-09-14T21:39:17.795Z,83.54
2022-09-14T21:41:45.600Z,82.53
2022-09-14T21:44:13.699Z,81.56
2022-09-14T21:46:41.919Z,76.54
2022-09-14T21:49:18.036Z,74.72
2022-09-14T21:51:46.881Z,74.11
2022-09-14T21:54:15.093Z,76.39
2022-09-14T21:56:44.297Z,78.87
2022-09-14T21:59:14.201Z,82.36
2022-09-14T22:01:42.119Z,82.26
2022-09-14T22:04:14.187Z,80.07
2022-09-14T22:06:41.778Z,77.16
2022-09-14T22:09:09.188Z,76.83
2022-09-14T22:11:38.718Z,74.82
2022-09-14T22:14:09.849Z,73.08
2022-09-14T22:16:38.017Z,76.27
2022-09-14T22:19:08.811Z,79.68
2022-09-14T22:21:37.341Z,81.10
2022-09-14T22:24:12.720Z,84.50
2022-09-14T22:26:41.149Z,85.56
2022-09-14T22:29:09.719Z,86.78
2022-09-14T22:31:39.902Z,86.32
2022-09-14T22:34:07.934Z,85.41
2022-09-14T22:36:35.924Z,85.16
2022-09-14T22:39:04.656Z,83.21
2022-09-14T22:41:32.127Z,81.95
2022-09-14T22:44:00.090Z,82.28
2022-09-14T22:46:27.548Z,80.63
2022-09-14T22:48:54.971Z,79.77
2022-09-14T22:51:24.827Z,79.55
2022-09-14T22:53:52.842Z,77.95
2022-09-14T22:56:21.665Z,76.92
2022-09-14T22:58:49.983Z,75.68
2022-09-14T23:01:28.727Z,78.63
2022-09-14T23:04:01.587Z,77.99
2022-09-14T23:06:31.765Z,72.92
2022-09-14T23:09:02.544Z,76.89
2022-09-14T23:11:30.513Z,79.90
2022-09-14T23:13:58.917Z,76.66
2022-09-14T23:16:28.384Z,72.48
2022-09-14T23:18:58.124Z,72.93
2022-09-14T23:21:26.330Z,72.70
2022-09-14T23:23:55.715Z,71.88
2022-09-14T23:26:23.947Z,70.97
2022-09-14T23:28:53.049Z,70.76
2022-09-14T23:31:20.888Z,70.24
2022-09-14T23:33:52.879Z,71.43
2022-09-14T23:36:22.215Z,76.43
2022-09-14T23:38:50.259Z,72.58
2022-09-14T23:41:19.170Z,72.69
2022-09-14T23:43:46.599Z,74.04
2022-09-14T23:46:14.596Z,76.16
2022-09-14T23:48:42.573Z,79.63
2022-09-14T23:51:11.104Z,80.14
2022-09-14T23:53:39.365Z,79.25
2022-09-14T23:56:07.012Z,76.53
2022-09-14T23:58:34.626Z,72.80
